createdAt,value
2018-04-22T00:02:05.445Z,8.77
2018-04-22T00:04:32.900Z,8.50
2018-04-22T00:07:00.369Z,9.23
2018-04-22T00:09:27.852Z,8.57
2018-04-22T00:11:55.312Z,7.70
2018-04-22T00:14:22.775Z,7.87
2018-04-22T00:16:51.008Z,8.33
2018-04-22T00:19:18.465Z,7.70
2018-04-22T00:21:45.935Z,7.53
2018-04-22T00:24:13.405Z,8.80
2018-04-22T00:26:40.868Z,8.87
2018-04-22T00:29:08.331Z,8.20
2018-04-22T00:31:37.101Z,7.63
2018-04-22T00:34:05.334Z,7.80
2018-04-22T00:36:32.801Z,7.80
2018-04-22T00:39:00.276Z,7.90
2018-04-22T00:41:27.768Z,8.13
2018-04-22T00:43:55.986Z,7.53
2018-04-22T00:46:23.457Z,8.20
2018-04-22T00:48:50.911Z,8.77
2018-04-22T00:51:18.392Z,7.20
2018-04-22T00:53:57.793Z,8.03
2018-04-22T00:56:25.253Z,8.20
2018-04-22T00:58:52.728Z,8.77
2018-04-22T01:01:20.188Z,8.50
2018-04-22T01:03:47.660Z,8.70
2018-04-22T01:06:15.116Z,8.53
2018-04-22T01:08:42.581Z,8.73
2018-04-22T01:11:10.037Z,8.53
2018-04-22T01:13:37.518Z,8.27
2018-04-22T01:16:06.488Z,7.70
2018-04-22T01:18:33.952Z,7.73
2018-04-22T01:21:01.396Z,8.83
2018-04-22T01:23:28.872Z,8.80
2018-04-22T01:25:57.107Z,8.87
2018-04-22T01:28:24.586Z,8.83
2018-04-22T01:30:52.052Z,8.57
2018-04-22T01:33:19.508Z,8.90
2018-04-22T01:35:46.974Z,8.20
2018-04-22T01:38:15.200Z,8.70
2018-04-22T01:40:42.660Z,9.20
2018-04-22T01:43:10.128Z,8.27
2018-04-22T01:45:37.609Z,8.63
2018-04-22T01:48:05.068Z,8.90
2018-04-22T01:50:32.527Z,8.80
2018-04-22T01:53:00.759Z,9.57
2018-04-22T01:55:28.208Z,9.20
2018-04-22T01:57:55.676Z,7.87
2018-04-22T02:00:23.128Z,9.07
2018-04-22T02:02:50.605Z,9.17
2018-04-22T02:05:18.073Z,9.27
2018-04-22T02:07:45.536Z,9.40
2018-04-22T02:10:13.011Z,9.40
2018-04-22T02:12:41.254Z,9.10
2018-04-22T02:15:08.715Z,9.97
2018-04-22T02:17:36.183Z,9.73
2018-04-22T02:20:03.649Z,9.27
2018-04-22T02:22:31.972Z,10.20
2018-04-22T02:24:59.447Z,9.67
2018-04-22T02:27:26.903Z,10.47
2018-04-22T02:29:54.364Z,9.80
2018-04-22T02:32:21.833Z,10.57
2018-04-22T02:34:49.304Z,9.37
2018-04-22T02:37:17.542Z,10.20
2018-04-22T02:39:45.225Z,9.80
2018-04-22T02:42:12.684Z,9.47
2018-04-22T02:44:40.145Z,9.93
2018-04-22T02:47:07.609Z,9.67
2018-04-22T02:49:35.068Z,9.97
2018-04-22T02:52:03.289Z,9.97
2018-04-22T02:54:30.750Z,11.53
2018-04-22T02:56:58.212Z,10.00
2018-04-22T02:59:25.668Z,10.00
2018-04-22T03:01:53.144Z,11.10
2018-04-22T03:04:20.598Z,9.30
2018-04-22T03:06:48.064Z,11.70
2018-04-22T03:09:15.522Z,11.17
2018-04-22T03:11:43.001Z,10.90
2018-04-22T03:14:11.217Z,11.43
2018-04-22T03:16:38.685Z,11.17
2018-04-22T03:19:06.921Z,10.40
2018-04-22T03:21:34.395Z,11.50
2018-04-22T03:24:01.856Z,11.03
2018-04-22T03:26:29.332Z,11.50
2018-04-22T03:28:56.812Z,10.20
2018-04-22T03:31:24.288Z,11.63
2018-04-22T03:33:52.525Z,12.70
2018-04-22T03:36:20.773Z,12.20
2018-04-22T03:38:48.233Z,11.70
2018-04-22T03:41:15.700Z,11.50
2018-04-22T03:43:43.165Z,11.40
2018-04-22T03:46:10.632Z,12.50
2018-04-22T03:48:38.093Z,12.10
2018-04-22T03:51:06.253Z,12.80
2018-04-22T03:53:33.719Z,13.00
2018-04-22T03:56:01.192Z,12.03
2018-04-22T04:01:02.724Z,13.07
2018-04-22T04:03:30.184Z,12.77
2018-04-22T04:05:57.658Z,13.00
2018-04-22T04:08:25.115Z,11.93
2018-04-22T04:10:52.588Z,12.77
2018-04-22T04:13:20.067Z,12.33
2018-04-22T04:15:48.285Z,11.90
2018-04-22T04:21:40.405Z,12.20
2018-04-22T04:24:29.358Z,14.07
2018-04-22T04:27:22.089Z,12.93
2018-04-22T04:29:49.558Z,12.10
2018-04-22T04:32:17.793Z,12.80
2018-04-22T04:34:45.244Z,11.70
2018-04-22T04:37:12.717Z,13.17
2018-04-22T04:39:40.180Z,13.03
2018-04-22T04:42:07.647Z,13.30
2018-04-22T04:44:35.205Z,13.37
2018-04-22T04:47:02.660Z,12.97
2018-04-22T04:49:30.147Z,12.73
2018-04-22T04:51:58.364Z,13.43
2018-04-22T04:54:25.853Z,12.57
2018-04-22T04:56:53.310Z,13.43
2018-04-22T04:59:20.767Z,12.73
2018-04-22T05:01:48.244Z,13.00
2018-04-22T05:04:17.478Z,13.27
2018-04-22T05:06:45.485Z,12.03
2018-04-22T05:09:12.969Z,13.80
2018-04-22T05:11:41.188Z,12.80
2018-04-22T05:14:08.653Z,12.80
2018-04-22T05:16:36.478Z,13.30
2018-04-22T05:19:03.936Z,11.73
2018-04-22T05:21:31.409Z,12.00
2018-04-22T05:23:58.963Z,11.60
2018-04-22T05:26:26.404Z,13.50
2018-04-22T05:28:53.883Z,12.53
2018-04-22T05:31:21.344Z,13.20
2018-04-22T05:33:48.809Z,12.63
2018-04-22T05:36:16.276Z,12.33
2018-04-22T05:38:43.728Z,13.27
2018-04-22T05:41:11.205Z,12.33
2018-04-22T05:43:38.664Z,12.70
2018-04-22T05:46:06.137Z,13.17
2018-04-22T05:48:34.375Z,11.90
2018-04-22T05:51:01.848Z,14.03
2018-04-22T05:53:29.370Z,13.70
2018-04-22T05:55:56.835Z,12.83
2018-04-22T05:58:24.308Z,12.17
2018-04-22T06:00:51.765Z,13.53
2018-04-22T06:03:19.215Z,12.83
2018-04-22T06:05:46.684Z,11.97
2018-04-22T06:08:14.163Z,13.23
2018-04-22T06:10:41.623Z,12.43
2018-04-22T06:13:09.866Z,13.80
2018-04-22T06:15:37.341Z,12.03
2018-04-22T06:18:04.828Z,12.30
2018-04-22T06:20:33.087Z,12.50
2018-04-22T06:23:00.578Z,13.37
2018-04-22T06:25:28.029Z,11.93
2018-04-22T06:27:55.594Z,12.73
2018-04-22T06:30:23.216Z,12.50
2018-04-22T06:32:50.719Z,12.53
2018-04-22T06:35:18.194Z,12.77
2018-04-22T06:37:45.659Z,13.23
2018-04-22T06:40:13.239Z,12.93
2018-04-22T06:42:40.706Z,13.27
2018-04-22T06:45:08.951Z,12.80
2018-04-22T06:47:36.499Z,11.77
2018-04-22T06:50:04.063Z,14.47
2018-04-22T06:52:31.520Z,14.00
2018-04-22T06:54:58.996Z,13.33
2018-04-22T06:57:27.233Z,12.77
2018-04-22T06:59:54.709Z,13.87
2018-04-22T07:02:22.177Z,14.87
2018-04-22T07:04:49.644Z,13.30
2018-04-22T07:07:17.110Z,14.60
2018-04-22T07:09:45.192Z,14.33
2018-04-22T07:12:13.426Z,16.17
2018-04-22T07:14:40.890Z,14.53
2018-04-22T07:17:08.358Z,16.10
2018-04-22T07:19:35.832Z,16.40
2018-04-22T07:22:04.069Z,17.10
2018-04-22T07:24:31.538Z,16.30
2018-04-22T07:26:59.006Z,16.97
2018-04-22T07:29:26.473Z,18.30
2018-04-22T07:31:53.945Z,16.90
2018-04-22T07:34:22.176Z,19.10
2018-04-22T07:36:49.653Z,19.30
2018-04-22T07:39:17.112Z,19.30
2018-04-22T07:41:45.575Z,19.83
2018-04-22T07:44:13.048Z,20.23
2018-04-22T07:46:40.520Z,19.23
2018-04-22T07:49:08.758Z,20.30
2018-04-22T07:51:36.222Z,21.50
2018-04-22T07:54:03.691Z,20.33
2018-04-22T07:56:31.164Z,20.53
2018-04-22T07:58:58.630Z,21.87
2018-04-22T08:01:26.865Z,21.77
2018-04-22T08:03:54.340Z,22.20
2018-04-22T08:06:21.804Z,22.10
2018-04-22T08:08:49.266Z,23.63
2018-04-22T08:11:18.128Z,22.80
2018-04-22T08:13:45.652Z,24.77
2018-04-22T08:16:13.134Z,25.80
2018-04-22T08:18:40.603Z,23.00
2018-04-22T08:21:08.077Z,23.80
2018-04-22T08:23:35.532Z,25.50
2018-04-22T08:26:03.020Z,25.10
2018-04-22T08:28:30.527Z,27.30
2018-04-22T08:30:57.940Z,27.07
2018-04-22T08:33:26.419Z,27.70
2018-04-22T08:35:53.880Z,26.43
2018-04-22T08:38:21.369Z,27.17
2018-04-22T08:40:48.837Z,27.60
2018-04-22T08:43:16.300Z,27.10
2018-04-22T08:45:43.782Z,25.90
2018-04-22T08:48:12.022Z,26.30
2018-04-22T08:50:40.052Z,26.47
2018-04-22T08:53:07.469Z,27.37
2018-04-22T08:55:34.923Z,27.40
2018-04-22T08:58:02.396Z,26.67
2018-04-22T09:00:30.624Z,26.97
2018-04-22T09:02:58.089Z,29.30
2018-04-22T09:05:25.572Z,27.73
2018-04-22T09:07:53.033Z,28.90
2018-04-22T09:10:21.270Z,27.63
2018-04-22T09:12:48.729Z,28.83
2018-04-22T09:15:16.271Z,27.87
2018-04-22T09:17:43.723Z,29.50
2018-04-22T09:20:11.204Z,28.93
2018-04-22T09:22:38.664Z,30.53
2018-04-22T09:25:06.129Z,29.67
2018-04-22T09:27:33.590Z,30.30
2018-04-22T09:30:01.048Z,31.87
2018-04-22T09:32:28.541Z,32.53
2018-04-22T09:34:57.797Z,31.40
2018-04-22T09:37:25.260Z,32.80
2018-04-22T09:39:52.736Z,34.80
2018-04-22T09:42:20.967Z,36.23
2018-04-22T09:44:48.432Z,34.50
2018-04-22T09:47:15.903Z,37.70
2018-04-22T09:49:43.468Z,38.40
2018-04-22T09:52:10.923Z,37.50
2018-04-22T09:54:38.375Z,36.43
2018-04-22T09:57:05.879Z,35.80
2018-04-22T09:59:33.328Z,36.50
2018-04-22T10:02:00.790Z,33.57
2018-04-22T10:04:29.037Z,36.63
2018-04-22T10:06:57.270Z,37.70
2018-04-22T10:09:24.729Z,36.20
2018-04-22T10:11:52.212Z,38.30
2018-04-22T10:14:19.668Z,39.17
2018-04-22T10:16:47.132Z,37.97
2018-04-22T10:19:14.601Z,40.00
2018-04-22T10:21:42.832Z,39.13
2018-04-22T10:24:10.296Z,40.70
2018-04-22T10:26:37.751Z,42.00
2018-04-22T10:29:05.761Z,44.00
2018-04-22T10:31:34.000Z,45.37
2018-04-22T10:34:01.456Z,43.17
2018-04-22T10:36:28.932Z,42.37
2018-04-22T10:38:56.392Z,42.07
2018-04-22T10:41:23.868Z,42.60
2018-04-22T10:43:52.100Z,41.83
2018-04-22T10:46:19.585Z,43.70
2018-04-22T10:48:47.047Z,40.93
2018-04-22T10:51:15.368Z,42.50
2018-04-22T10:53:42.828Z,43.20
2018-04-22T10:56:10.302Z,41.70
2018-04-22T10:58:37.771Z,44.50
2018-04-22T11:01:05.227Z,44.07
2018-04-22T11:03:32.697Z,42.93
2018-04-22T11:06:00.156Z,43.03
2018-04-22T11:08:27.637Z,44.40
2018-04-22T11:10:55.870Z,39.63
2018-04-22T11:13:23.359Z,40.03
2018-04-22T11:15:51.584Z,41.87
2018-04-22T11:18:19.052Z,39.87
2018-04-22T11:20:46.529Z,40.73
2018-04-22T11:23:14.003Z,37.87
2018-04-22T11:25:42.240Z,38.23
2018-04-22T11:28:09.716Z,34.97
2018-04-22T11:30:37.177Z,35.40
2018-04-22T11:33:04.645Z,35.20
2018-04-22T11:35:32.868Z,36.20
2018-04-22T11:38:00.339Z,36.20
2018-04-22T11:40:27.806Z,32.70
2018-04-22T11:42:55.274Z,31.90
2018-04-22T11:45:22.749Z,34.20
2018-04-22T11:47:51.017Z,34.07
2018-04-22T11:50:18.445Z,33.53
2018-04-22T11:52:45.928Z,29.87
2018-04-22T11:55:13.392Z,30.40
2018-04-22T11:57:41.619Z,29.00
2018-04-22T12:00:09.117Z,28.93
2018-04-22T12:02:37.212Z,21.30
2018-04-22T12:05:05.433Z,18.93
2018-04-22T12:07:32.912Z,24.77
2018-04-22T12:10:00.368Z,25.73
2018-04-22T12:12:27.828Z,24.30
2018-04-22T12:14:55.296Z,22.47
2018-04-22T12:17:23.523Z,21.07
2018-04-22T12:19:50.995Z,19.30
2018-04-22T12:22:18.485Z,17.10
2018-04-22T12:24:46.722Z,10.10
2018-04-22T12:27:14.176Z,11.50
2018-04-22T12:29:41.648Z,12.53
2018-04-22T12:32:09.117Z,11.43
2018-04-22T12:34:36.598Z,13.93
2018-04-22T12:37:04.852Z,13.00
2018-04-22T12:39:32.309Z,13.10
2018-04-22T12:41:59.792Z,11.83
2018-04-22T12:44:28.033Z,12.97
2018-04-22T12:46:55.493Z,12.20
2018-04-22T12:49:22.956Z,11.20
2018-04-22T12:51:50.422Z,10.40
2018-04-22T12:54:18.660Z,10.10
2018-04-22T12:56:46.108Z,10.50
2018-04-22T12:59:13.612Z,9.23
2018-04-22T13:01:41.080Z,10.10
2018-04-22T13:04:09.301Z,10.50
2018-04-22T13:06:36.788Z,11.90
2018-04-22T13:09:04.256Z,10.93
2018-04-22T13:11:32.480Z,12.17
2018-04-22T13:13:59.955Z,12.30
2018-04-22T13:16:27.437Z,11.90
2018-04-22T13:18:54.909Z,13.80
2018-04-22T13:21:23.144Z,14.73
2018-04-22T13:23:50.621Z,14.90
2018-04-22T13:26:18.084Z,15.10
2018-04-22T13:28:45.573Z,12.87
2018-04-22T13:31:13.033Z,13.93
2018-04-22T13:33:40.486Z,14.13
2018-04-22T13:36:07.956Z,13.07
2018-04-22T13:38:35.426Z,13.30
2018-04-22T13:41:02.972Z,13.93
2018-04-22T13:43:30.439Z,13.07
2018-04-22T13:45:57.897Z,15.10
2018-04-22T13:48:25.380Z,12.70
2018-04-22T13:50:52.837Z,10.97
2018-04-22T13:53:20.309Z,11.90
2018-04-22T13:55:47.769Z,9.70
2018-04-22T13:58:15.236Z,9.70
2018-04-22T14:00:43.462Z,12.77
2018-04-22T14:03:10.929Z,15.00
2018-04-22T14:05:38.396Z,13.80
2018-04-22T14:08:06.579Z,13.20
2018-04-22T14:10:34.116Z,13.90
2018-04-22T14:13:01.880Z,15.23
2018-04-22T14:15:29.336Z,16.53
2018-04-22T14:17:57.132Z,16.67
2018-04-22T14:20:26.148Z,16.17
2018-04-22T14:22:53.641Z,17.67
2018-04-22T14:25:21.141Z,18.70
2018-04-22T14:27:48.589Z,18.70
2018-04-22T14:30:16.055Z,20.10
2018-04-22T14:32:44.299Z,18.77
2018-04-22T14:35:11.770Z,19.90
2018-04-22T14:37:39.249Z,19.50
2018-04-22T14:40:07.512Z,21.53
2018-04-22T14:42:34.957Z,20.13
2018-04-22T14:45:14.408Z,19.17
2018-04-22T14:47:41.880Z,20.97
2018-04-22T14:50:10.108Z,21.70
2018-04-22T14:52:38.378Z,29.70
2018-04-22T14:55:06.537Z,33.80
2018-04-22T14:57:33.993Z,35.50
2018-04-22T15:00:01.453Z,36.03
2018-04-22T15:02:28.921Z,35.17
2018-04-22T15:04:56.405Z,32.73
2018-04-22T15:07:23.865Z,30.50
2018-04-22T15:09:51.349Z,26.80
2018-04-22T15:12:19.592Z,26.40
2018-04-22T15:14:47.054Z,21.73
2018-04-22T15:17:14.528Z,22.37
2018-04-22T15:19:42.764Z,18.47
2018-04-22T15:22:10.216Z,18.13
2018-04-22T15:24:37.697Z,17.07
2018-04-22T15:27:05.174Z,18.73
2018-04-22T15:29:33.417Z,19.27
2018-04-22T15:32:00.896Z,19.10
2018-04-22T15:34:28.364Z,19.70
2018-04-22T15:36:56.614Z,18.83
2018-04-22T15:39:25.298Z,17.52
2018-04-22T15:41:52.761Z,18.33
2018-04-22T15:44:20.243Z,18.17
2018-04-22T15:46:48.483Z,17.40
2018-04-22T15:49:15.948Z,22.63
2018-04-22T15:51:43.499Z,24.60
2018-04-22T15:54:10.935Z,27.10
2018-04-22T15:56:38.405Z,30.57
2018-04-22T15:59:05.869Z,27.33
2018-04-22T16:01:33.342Z,30.47
2018-04-22T16:04:00.848Z,31.10
2018-04-22T16:06:28.299Z,29.60
2018-04-22T16:08:55.759Z,32.97
2018-04-22T16:11:23.244Z,31.30
2018-04-22T16:13:50.704Z,34.10
2018-04-22T16:16:18.178Z,32.30
2018-04-22T16:18:45.640Z,31.03
2018-04-22T16:21:13.182Z,29.60
2018-04-22T16:23:40.600Z,29.60
2018-04-22T16:26:08.071Z,29.03
2018-04-22T16:28:35.536Z,32.00
2018-04-22T16:31:03.005Z,30.60
2018-04-22T16:33:31.452Z,29.97
2018-04-22T16:35:58.916Z,26.80
2018-04-22T16:38:26.408Z,26.80
2018-04-22T16:40:53.879Z,22.30
2018-04-22T16:43:21.335Z,13.30
2018-04-22T16:45:48.805Z,13.73
2018-04-22T16:48:17.054Z,11.97
2018-04-22T16:50:44.517Z,11.20
2018-04-22T16:53:11.996Z,8.20
2018-04-22T16:55:40.243Z,5.73
2018-04-22T16:58:07.725Z,4.70
2018-04-22T17:00:36.104Z,4.73
2018-04-22T17:03:04.329Z,4.50
2018-04-22T17:05:31.809Z,4.17
2018-04-22T17:07:59.272Z,4.50
2018-04-22T17:10:26.742Z,5.70
2018-04-22T17:12:54.974Z,4.10
2018-04-22T17:15:22.650Z,4.40
2018-04-22T17:17:50.111Z,4.43
2018-04-22T17:20:17.692Z,5.20
2018-04-22T17:22:45.911Z,4.30
2018-04-22T17:25:13.438Z,5.10
2018-04-22T17:27:41.685Z,4.37
2018-04-22T17:30:09.165Z,5.10
2018-04-22T17:32:37.473Z,4.50
2018-04-22T17:35:05.012Z,4.80
2018-04-22T17:37:33.254Z,5.40
2018-04-22T17:40:00.713Z,6.03
2018-04-22T17:42:29.104Z,6.67
2018-04-22T17:44:57.329Z,5.00
2018-04-22T17:47:24.820Z,5.43
2018-04-22T17:49:52.281Z,6.67
2018-04-22T17:52:19.794Z,4.93
2018-04-22T17:54:47.261Z,5.93
2018-04-22T17:57:15.484Z,5.53
2018-04-22T17:59:43.712Z,6.57
2018-04-22T18:02:11.184Z,5.90
2018-04-22T18:04:38.643Z,5.37
2018-04-22T18:07:06.179Z,6.50
2018-04-22T18:09:33.596Z,5.73
2018-04-22T18:12:01.830Z,6.67
2018-04-22T18:14:29.381Z,6.80
2018-04-22T18:16:57.052Z,4.73
2018-04-22T18:19:24.519Z,6.00
2018-04-22T18:21:52.001Z,6.10
2018-04-22T18:24:20.236Z,5.70
2018-04-22T18:26:47.723Z,6.00
2018-04-22T18:29:15.177Z,5.13
2018-04-22T18:31:43.420Z,6.87
2018-04-22T18:34:10.901Z,5.90
2018-04-22T18:36:38.361Z,7.10
2018-04-22T18:39:05.879Z,5.93
2018-04-22T18:41:33.348Z,5.73
2018-04-22T18:44:00.804Z,6.50
2018-04-22T18:46:29.060Z,5.90
2018-04-22T18:48:56.520Z,6.30
2018-04-22T18:51:23.982Z,7.23
2018-04-22T18:53:51.684Z,5.90
2018-04-22T18:56:19.148Z,6.57
2018-04-22T18:58:47.117Z,6.40
2018-04-22T19:01:15.356Z,6.87
2018-04-22T19:03:42.833Z,6.67
2018-04-22T19:06:10.318Z,7.17
2018-04-22T19:08:38.541Z,6.70
2018-04-22T19:11:06.034Z,7.00
2018-04-22T19:13:33.476Z,6.80
2018-04-22T19:16:00.958Z,6.67
2018-04-22T19:18:29.188Z,7.00
2018-04-22T19:20:56.641Z,7.20
2018-04-22T19:23:24.876Z,6.00
2018-04-22T19:25:53.119Z,9.07
2018-04-22T19:28:20.597Z,7.00
2018-04-22T19:30:48.836Z,8.00
2018-04-22T19:33:16.291Z,6.77
2018-04-22T19:35:43.776Z,6.40
2018-04-22T19:38:12.002Z,7.10
2018-04-22T19:40:39.457Z,6.93
2018-04-22T19:43:06.946Z,6.63
2018-04-22T19:45:34.405Z,7.70
2018-04-22T19:48:01.875Z,7.10
2018-04-22T19:50:30.154Z,7.23
2018-04-22T19:52:57.636Z,7.13
2018-04-22T19:55:25.110Z,7.70
2018-04-22T19:57:52.628Z,6.60
2018-04-22T20:00:20.868Z,7.60
2018-04-22T20:02:48.480Z,8.00
2018-04-22T20:05:16.716Z,7.70
2018-04-22T20:07:44.291Z,8.50
2018-04-22T20:10:11.812Z,6.87
2018-04-22T20:12:39.444Z,8.37
2018-04-22T20:15:06.987Z,6.47
2018-04-22T20:17:35.233Z,6.97
2018-04-22T20:20:02.716Z,6.87
2018-04-22T20:22:30.967Z,5.60
2018-04-22T20:24:58.462Z,6.67
2018-04-22T20:27:26.681Z,6.27
2018-04-22T20:29:54.139Z,5.60
2018-04-22T20:32:21.684Z,6.07
2018-04-22T20:34:49.243Z,5.43
2018-04-22T20:37:16.737Z,5.87
2018-04-22T20:39:44.208Z,5.57
2018-04-22T20:42:11.727Z,6.30
2018-04-22T20:44:39.432Z,6.30
2018-04-22T20:47:06.944Z,5.83
2018-04-22T20:49:34.412Z,5.50
2018-04-22T20:52:01.870Z,5.60
2018-04-22T20:54:29.352Z,7.23
2018-04-22T20:56:57.682Z,5.97
2018-04-22T20:59:25.200Z,6.13
2018-04-22T21:01:53.502Z,6.40
2018-04-22T21:04:20.984Z,6.40
2018-04-22T21:06:48.486Z,5.83
2018-04-22T21:09:16.743Z,5.37
2018-04-22T21:11:44.306Z,5.77
2018-04-22T21:14:12.579Z,6.70
2018-04-22T21:16:40.093Z,5.57
2018-04-22T21:19:07.554Z,5.83
2018-04-22T21:21:35.062Z,6.23
2018-04-22T21:24:03.287Z,5.20
2018-04-22T21:26:30.769Z,6.10
2018-04-22T21:28:58.247Z,6.23
2018-04-22T21:31:25.855Z,5.77
2018-04-22T21:33:53.402Z,5.23
2018-04-22T21:36:20.909Z,4.80
2018-04-22T21:38:49.187Z,5.87
2018-04-22T21:41:16.742Z,6.47
2018-04-22T21:43:44.200Z,5.03
2018-04-22T21:46:11.671Z,5.93
2018-04-22T21:48:39.892Z,5.20
2018-04-22T21:51:07.356Z,6.27
2018-04-22T21:53:34.833Z,5.63
2018-04-22T21:56:02.342Z,5.03
2018-04-22T21:58:29.755Z,4.90
2018-04-22T22:00:57.228Z,5.00
2018-04-22T22:03:25.455Z,6.00
2018-04-22T22:05:52.909Z,6.23
2018-04-22T22:08:20.371Z,5.30
2018-04-22T22:10:47.975Z,6.27
2018-04-22T22:13:16.204Z,5.63
2018-04-22T22:15:43.697Z,5.80
2018-04-22T22:18:11.149Z,5.27
2018-04-22T22:20:38.649Z,4.93
2018-04-22T22:23:06.977Z,5.63
2018-04-22T22:25:34.440Z,4.80
2018-04-22T22:28:01.906Z,5.67
2018-04-22T22:30:29.367Z,5.43
2018-04-22T22:32:56.842Z,5.10
2018-04-22T22:35:25.090Z,5.40
2018-04-22T22:37:52.542Z,4.33
2018-04-22T22:40:20.614Z,5.90
2018-04-22T22:42:48.196Z,6.30
2018-04-22T22:45:15.661Z,6.10
2018-04-22T22:47:44.911Z,5.37
2018-04-22T22:50:12.381Z,6.40
2018-04-22T22:52:39.824Z,5.90
2018-04-22T22:55:07.305Z,6.07
2018-04-22T22:57:34.751Z,6.40
2018-04-22T23:00:02.317Z,4.73
2018-04-22T23:02:29.792Z,6.27
2018-04-22T23:04:58.019Z,5.83
2018-04-22T23:07:25.485Z,5.73
2018-04-22T23:09:52.962Z,5.67
2018-04-22T23:12:20.428Z,5.80
2018-04-22T23:14:47.896Z,5.63
2018-04-22T23:17:16.149Z,6.20
2018-04-22T23:19:43.620Z,6.50
2018-04-22T23:22:11.841Z,5.90
2018-04-22T23:24:39.398Z,6.60
2018-04-22T23:27:06.852Z,6.47
2018-04-22T23:29:34.324Z,6.87
2018-04-22T23:32:01.792Z,6.03
2018-04-22T23:34:29.264Z,5.93
2018-04-22T23:36:56.756Z,6.90
2018-04-22T23:39:24.980Z,6.40
2018-04-22T23:41:52.452Z,7.33
2018-04-22T23:44:19.920Z,7.40
2018-04-22T23:46:48.289Z,6.40
2018-04-22T23:49:15.761Z,8.50
2018-04-22T23:51:44.024Z,8.73
2018-04-22T23:54:11.480Z,9.40
2018-04-22T23:56:38.945Z,9.10
2018-04-22T23:59:06.404Z,8.80
